Time;durP1;ratioP1;P1;durP2;ratioP2;P2;SDS_P1;SDS_P2;PMS_P1;PMS_P2;Temp;Humidity;BMP_temperature;BMP_pressure;BME280_temperature;BME280_humidity;BME280_pressure;Samples;Min_cycle;Max_cycle;Signal;HPM_P1;HPM_P2
2023/05/27 00:00:32;;;;;;;22.30;7.30;;;;;;;9.89;59.29;101280.99;130232;1274;114770;-66
2023/05/27 00:03:55;;;;;;;19.90;6.60;;;;;;;9.80;59.62;101283.23;130556;1256;115120;-66
2023/05/27 00:06:57;;;;;;;23.50;6.10;;;;;;;9.73;59.66;101286.33;130637;1253;115158;-65
2023/05/27 00:09:59;;;;;;;26.90;7.90;;;;;;;9.65;59.90;101281.55;130683;1256;114772;-65
2023/05/27 00:13:01;;;;;;;25.10;7.30;;;;;;;9.58;60.01;101283.19;130457;1274;129681;-65
2023/05/27 00:16:03;;;;;;;20.90;7.10;;;;;;;9.51;60.13;101278.40;130182;1265;114772;-66
2023/05/27 00:19:06;;;;;;;29.30;6.60;;;;;;;9.43;60.29;101280.58;130225;1255;114682;-64
2023/05/27 00:22:08;;;;;;;26.70;7.70;;;;;;;9.36;60.33;101280.80;130171;1253;114776;-65
2023/05/27 00:25:10;;;;;;;17.70;5.70;;;;;;;9.29;60.61;101280.80;130147;1256;114684;-64
2023/05/27 00:28:13;;;;;;;26.90;6.70;;;;;;;9.24;60.73;101279.52;130195;1274;114683;-65
2023/05/27 00:31:15;;;;;;;25.10;7.10;;;;;;;9.19;60.90;101278.23;130496;1255;114802;-66
2023/05/27 00:34:17;;;;;;;22.30;6.10;;;;;;;9.14;61.05;101281.05;130563;1272;115379;-64
2023/05/27 00:37:19;;;;;;;20.40;6.70;;;;;;;9.08;61.21;101282.27;130436;1253;115225;-65
2023/05/27 00:40:22;;;;;;;15.40;6.20;;;;;;;9.02;61.50;101283.33;130366;1256;115171;-65
2023/05/27 00:43:24;;;;;;;22.10;7.30;;;;;;;8.96;61.28;101283.86;130109;1255;114799;-65
2023/05/27 00:46:26;;;;;;;25.60;7.10;;;;;;;8.90;61.72;101283.13;130257;1255;115080;-65
2023/05/27 00:49:28;;;;;;;25.70;6.80;;;;;;;8.83;61.87;101284.72;130167;1255;115151;-65
2023/05/27 00:52:30;;;;;;;19.80;6.50;;;;;;;8.76;61.80;101287.77;130923;1250;114752;-65
2023/05/27 00:55:33;;;;;;;19.50;7.50;;;;;;;8.68;61.85;101286.90;130306;1259;114773;-66
2023/05/27 00:58:36;;;;;;;27.50;7.30;;;;;;;8.61;62.00;101290.27;130186;1257;115235;-65
2023/05/27 01:01:38;;;;;;;28.40;6.90;;;;;;;8.55;62.34;101292.55;130421;1259;114710;-64
2023/05/27 01:04:42;;;;;;;28.60;7.60;;;;;;;8.48;62.43;101289.69;130184;1259;114760;-65
2023/05/27 01:07:56;;;;;;;25.50;6.70;;;;;;;8.43;63.01;101286.96;130506;1273;114723;-65
2023/05/27 01:10:58;;;;;;;28.80;7.30;;;;;;;8.36;62.63;101286.59;130318;1259;128994;-66
2023/05/27 01:14:05;;;;;;;27.10;6.80;;;;;;;8.30;63.03;101285.85;130195;1260;114745;-65
2023/05/27 01:17:09;;;;;;;22.60;6.50;;;;;;;8.25;63.04;101285.26;129977;1263;114952;-66
2023/05/27 01:20:13;;;;;;;33.60;7.30;;;;;;;8.19;63.17;101284.14;130270;1258;114715;-65
2023/05/27 01:23:15;;;;;;;25.20;6.60;;;;;;;8.15;63.17;101288.16;130306;1259;114728;-67
2023/05/27 01:26:17;;;;;;;23.90;7.30;;;;;;;8.11;63.57;101284.69;130179;1258;114877;-67
2023/05/27 01:29:20;;;;;;;21.90;6.50;;;;;;;8.07;63.71;101284.25;130266;1270;115320;-66
2023/05/27 01:32:22;;;;;;;21.50;7.40;;;;;;;8.05;63.87;101288.56;130229;1259;114776;-67
2023/05/27 01:35:28;;;;;;;23.50;6.90;;;;;;;8.03;64.16;101287.73;130305;1255;114663;-66
2023/05/27 01:38:31;;;;;;;25.40;6.80;;;;;;;8.00;64.27;101291.35;130198;1262;114918;-66
2023/05/27 01:41:34;;;;;;;29.20;7.50;;;;;;;7.97;64.29;101294.08;130233;1258;114801;-67
2023/05/27 01:44:37;;;;;;;24.10;8.40;;;;;;;7.95;64.60;101297.34;130174;1265;114730;-64
2023/05/27 01:47:40;;;;;;;25.90;7.60;;;;;;;7.91;64.67;101296.35;129912;1258;115162;-66
2023/05/27 01:50:42;;;;;;;23.60;7.30;;;;;;;7.88;64.65;101298.73;130426;1258;115275;-66
2023/05/27 01:53:44;;;;;;;35.80;7.60;;;;;;;7.85;64.74;101299.68;130192;1254;114863;-66
2023/05/27 01:56:46;;;;;;;26.60;7.20;;;;;;;7.82;64.85;101297.27;130196;1259;114748;-65
2023/05/27 01:59:48;;;;;;;23.50;7.40;;;;;;;7.79;64.95;101298.03;130199;1262;115058;-66
2023/05/27 02:02:50;;;;;;;29.10;7.50;;;;;;;7.76;65.10;101298.29;130220;1267;115397;-67
2023/05/27 02:05:52;;;;;;;24.30;8.00;;;;;;;7.73;65.47;101288.92;129979;1273;127724;-67
2023/05/27 02:08:54;;;;;;;26.40;6.70;;;;;;;7.71;65.46;101289.86;130211;1259;114771;-67
2023/05/27 02:11:56;;;;;;;23.20;6.90;;;;;;;7.67;65.66;101292.25;130242;1267;114739;-67
2023/05/27 02:14:58;;;;;;;22.80;7.10;;;;;;;7.64;65.55;101290.71;130175;1274;114779;-67
2023/05/27 02:18:00;;;;;;;24.90;7.40;;;;;;;7.60;65.58;101289.92;130068;1258;114730;-65
2023/05/27 02:21:05;;;;;;;26.10;7.80;;;;;;;7.56;65.51;101294.23;128299;1269;2489134;-65
2023/05/27 02:24:07;;;;;;;30.70;6.70;;;;;;;7.52;65.88;101287.41;130030;1262;114720;-67
2023/05/27 02:27:10;;;;;;;32.30;7.40;;;;;;;7.46;65.82;101293.21;130092;1268;114795;-65
2023/05/27 02:30:14;;;;;;;19.20;6.50;;;;;;;7.41;65.66;101301.86;130284;1267;115300;-67
2023/05/27 02:33:16;;;;;;;18.00;6.50;;;;;;;7.36;65.77;101304.98;130277;1259;114769;-66
2023/05/27 02:36:20;;;;;;;22.40;6.90;;;;;;;7.31;66.15;101312.53;130575;1258;114712;-66
2023/05/27 02:39:24;;;;;;;17.50;5.60;;;;;;;7.27;66.04;101314.04;130833;1259;115195;-68
2023/05/27 02:42:26;;;;;;;23.00;6.50;;;;;;;7.22;65.99;101315.02;130294;1256;114872;-68
2023/05/27 02:45:28;;;;;;;26.70;7.40;;;;;;;7.17;66.27;101309.42;130298;1254;114781;-68
2023/05/27 02:48:30;;;;;;;29.30;7.00;;;;;;;7.13;66.22;101311.98;130515;1258;115116;-69
2023/05/27 02:51:32;;;;;;;29.70;7.20;;;;;;;7.10;66.40;101312.23;130013;1255;114808;-67
2023/05/27 02:54:34;;;;;;;31.40;6.60;;;;;;;7.07;66.37;101314.77;130275;1256;115180;-66
2023/05/27 02:57:36;;;;;;;28.20;7.70;;;;;;;7.05;66.51;101316.05;130301;1264;114707;-67
2023/05/27 03:00:38;;;;;;;26.90;7.40;;;;;;;7.03;66.81;101315.56;130204;1260;114717;-68
2023/05/27 03:03:40;;;;;;;21.10;6.70;;;;;;;7.01;66.76;101315.05;130064;1258;114716;-67
2023/05/27 03:06:42;;;;;;;17.30;7.10;;;;;;;7.01;66.90;101316.48;130206;1258;114679;-68
2023/05/27 03:09:44;;;;;;;23.40;6.90;;;;;;;7.01;67.00;101323.60;129937;1269;128713;-66
2023/05/27 03:12:46;;;;;;;19.20;6.10;;;;;;;7.01;67.04;101324.12;130141;1259;114706;-65
2023/05/27 03:15:48;;;;;;;22.10;7.30;;;;;;;7.04;67.03;101326.55;130192;1261;114749;-68
2023/05/27 03:18:51;;;;;;;23.00;7.30;;;;;;;7.07;67.38;101330.40;129858;1271;114726;-66
2023/05/27 03:21:52;;;;;;;25.00;7.30;;;;;;;7.11;67.45;101331.56;130169;1267;115106;-67
2023/05/27 03:24:54;;;;;;;28.50;8.00;;;;;;;7.17;67.51;101330.58;130222;1267;114920;-66
2023/05/27 03:27:56;;;;;;;23.80;7.10;;;;;;;7.22;67.52;101331.73;129897;1263;114826;-68
2023/05/27 03:30:59;;;;;;;23.90;7.40;;;;;;;7.28;67.69;101332.14;130020;1259;115152;-67
2023/05/27 03:34:01;;;;;;;21.90;8.00;;;;;;;7.36;68.03;101334.30;130111;1264;115444;-66
2023/05/27 03:37:03;;;;;;;31.00;7.80;;;;;;;7.44;67.94;101336.27;129814;1259;115173;-64
2023/05/27 03:40:06;;;;;;;28.30;8.00;;;;;;;7.53;68.10;101331.47;130056;1258;115296;-67
2023/05/27 03:43:08;;;;;;;26.10;8.00;;;;;;;7.62;68.14;101336.45;130167;1259;114724;-68
2023/05/27 03:46:10;;;;;;;25.40;7.50;;;;;;;7.72;68.11;101338.56;130138;1260;114808;-66
2023/05/27 03:49:12;;;;;;;29.80;7.60;;;;;;;7.82;67.89;101344.02;130031;1260;114718;-67
2023/05/27 03:52:15;;;;;;;19.70;7.00;;;;;;;7.93;68.20;101346.11;129999;1261;114736;-67
2023/05/27 03:55:17;;;;;;;23.60;7.20;;;;;;;8.06;68.01;101351.00;130120;1260;114728;-69
2023/05/27 03:58:19;;;;;;;15.10;6.30;;;;;;;8.17;68.23;101348.97;129726;1258;115358;-68
2023/05/27 04:01:22;;;;;;;23.90;7.80;;;;;;;8.29;68.37;101351.18;130022;1269;114828;-67
2023/05/27 04:04:24;;;;;;;32.40;8.80;;;;;;;8.42;68.04;101358.01;130066;1259;115350;-69
2023/05/27 04:07:28;;;;;;;23.10;7.80;;;;;;;8.54;68.24;101365.59;130104;1261;114764;-68
2023/05/27 04:10:30;;;;;;;27.10;8.50;;;;;;;8.68;68.19;101363.65;129817;1278;114759;-68
2023/05/27 04:13:32;;;;;;;24.80;8.20;;;;;;;8.81;68.14;101366.54;130011;1269;115106;-67
2023/05/27 04:16:35;;;;;;;25.70;8.30;;;;;;;8.95;68.03;101369.92;129997;1265;114774;-65
2023/05/27 04:19:37;;;;;;;27.20;9.70;;;;;;;9.11;67.96;101374.34;129866;1260;115461;-65
2023/05/27 04:22:41;;;;;;;35.70;9.60;;;;;;;9.26;67.81;101372.51;130211;1260;115209;-66
2023/05/27 04:25:44;;;;;;;24.60;8.00;;;;;;;9.41;67.89;101370.48;130097;1267;114731;-68
2023/05/27 04:28:48;;;;;;;27.40;7.60;;;;;;;9.56;67.67;101371.16;130062;1261;115226;-66
2023/05/27 04:31:50;;;;;;;30.00;8.40;;;;;;;9.72;67.70;101367.52;130128;1269;114781;-66
2023/05/27 04:34:52;;;;;;;26.40;8.00;;;;;;;10.00;67.89;101373.63;130055;1260;115089;-67
2023/05/27 04:37:55;;;;;;;28.60;8.20;;;;;;;10.74;68.43;101369.40;130032;1260;114733;-68
2023/05/27 04:40:58;;;;;;;19.20;7.10;;;;;;;11.71;67.96;101362.80;130053;1272;115240;-67
2023/05/27 04:44:00;;;;;;;22.90;7.70;;;;;;;12.76;67.24;101362.86;129870;1270;114848;-66
2023/05/27 04:47:03;;;;;;;20.20;7.00;;;;;;;13.78;66.01;101358.64;130035;1260;114763;-64
2023/05/27 04:50:06;;;;;;;23.20;7.60;;;;;;;14.78;64.78;101357.27;130117;1260;114726;-63
2023/05/27 04:53:08;;;;;;;19.30;6.50;;;;;;;15.71;63.36;101355.59;130178;1263;128861;-65
2023/05/27 04:56:14;;;;;;;17.60;7.50;;;;;;;16.54;62.00;101359.48;130047;1257;115174;-66
2023/05/27 04:59:18;;;;;;;17.60;6.30;;;;;;;17.38;60.83;101360.88;129829;1261;114814;-69
2023/05/27 05:02:25;;;;;;;21.00;6.40;;;;;;;18.15;59.43;101359.17;130089;1258;114735;-67
2023/05/27 05:05:28;;;;;;;20.60;7.00;;;;;;;18.85;58.38;101355.27;130090;1268;114723;-65
2023/05/27 05:08:30;;;;;;;22.60;7.30;;;;;;;19.50;57.22;101354.29;130077;1258;114743;-66
2023/05/27 05:11:32;;;;;;;20.30;6.40;;;;;;;20.14;56.16;101354.85;130037;1261;114938;-68
2023/05/27 05:14:34;;;;;;;15.60;7.30;;;;;;;20.69;54.79;101354.41;130130;1277;115177;-68
2023/05/27 05:17:36;;;;;;;21.50;6.20;;;;;;;21.10;53.26;101353.36;130094;1261;114879;-66
2023/05/27 05:20:39;;;;;;;21.50;7.90;;;;;;;21.52;52.49;101352.26;130064;1261;115365;-68
2023/05/27 05:23:42;;;;;;;16.70;7.20;;;;;;;21.89;51.41;101347.57;130072;1277;114689;-68
2023/05/27 05:26:45;;;;;;;15.30;6.10;;;;;;;22.24;49.97;101347.98;130058;1277;115311;-67
2023/05/27 05:29:47;;;;;;;24.50;7.20;;;;;;;22.42;48.97;101354.70;130212;1277;114736;-66
2023/05/27 05:32:50;;;;;;;21.40;6.60;;;;;;;22.68;48.09;101354.18;130166;1270;114803;-69
2023/05/27 05:35:52;;;;;;;18.80;6.80;;;;;;;22.79;47.34;101350.05;130141;1264;114740;-66
2023/05/27 05:38:54;;;;;;;20.30;6.30;;;;;;;22.93;46.58;101357.38;130110;1261;114817;-69
2023/05/27 05:41:57;;;;;;;17.20;6.10;;;;;;;23.04;45.27;101356.84;130177;1261;114786;-69
2023/05/27 05:44:59;;;;;;;14.10;5.70;;;;;;;22.96;44.95;101358.04;130087;1260;114707;-66
2023/05/27 05:48:01;;;;;;;13.00;5.40;;;;;;;23.06;44.32;101363.74;130067;1257;114787;-67
2023/05/27 05:51:03;;;;;;;14.00;5.70;;;;;;;23.24;43.70;101359.91;130150;1269;115320;-66
2023/05/27 05:54:05;;;;;;;14.10;5.30;;;;;;;23.16;42.89;101362.71;130105;1269;114804;-69
2023/05/27 05:57:07;;;;;;;12.30;4.70;;;;;;;23.12;41.52;101360.38;130112;1261;114794;-67
2023/05/27 06:00:11;;;;;;;11.50;4.60;;;;;;;23.18;41.36;101358.23;130159;1254;114713;-68
2023/05/27 06:03:13;;;;;;;12.40;4.40;;;;;;;23.09;40.88;101367.67;129982;1262;114841;-66
2023/05/27 06:06:15;;;;;;;9.40;4.10;;;;;;;23.21;40.94;101365.08;130067;1268;116691;-65
2023/05/27 06:09:17;;;;;;;11.80;4.30;;;;;;;23.22;39.81;101365.36;130150;1254;115605;-65
2023/05/27 06:12:19;;;;;;;12.70;4.10;;;;;;;23.04;39.22;101368.70;130094;1259;129549;-66
2023/05/27 06:15:22;;;;;;;10.20;3.80;;;;;;;23.08;38.87;101371.45;130341;1260;114737;-66
2023/05/27 06:18:24;;;;;;;13.00;3.00;;;;;;;22.70;35.97;101374.78;130115;1273;115081;-65
2023/05/27 06:21:26;;;;;;;9.80;4.10;;;;;;;22.16;37.29;101370.87;130101;1261;114671;-69
2023/05/27 06:24:28;;;;;;;10.20;4.00;;;;;;;22.06;37.84;101373.88;130072;1268;115175;-65
2023/05/27 06:27:30;;;;;;;9.30;3.60;;;;;;;21.93;36.97;101374.19;130187;1261;114722;-70
2023/05/27 06:30:32;;;;;;;8.30;3.10;;;;;;;21.53;37.00;101374.23;130091;1257;114787;-68
2023/05/27 06:33:34;;;;;;;9.80;3.30;;;;;;;21.47;37.30;101369.22;130101;1268;114839;-70
2023/05/27 06:36:36;;;;;;;9.60;3.30;;;;;;;21.45;37.39;101370.23;130097;1257;115044;-66
2023/05/27 06:39:38;;;;;;;12.40;3.70;;;;;;;21.43;36.45;101371.31;129953;1263;115255;-64
2023/05/27 06:42:40;;;;;;;11.40;3.50;;;;;;;21.37;37.23;101364.74;130154;1278;114755;-67
2023/05/27 06:45:42;;;;;;;9.90;3.20;;;;;;;21.68;37.40;101373.55;130318;1274;114788;-66
2023/05/27 06:48:44;;;;;;;8.80;3.20;;;;;;;21.94;37.35;101371.33;130094;1260;115074;-65
2023/05/27 06:51:46;;;;;;;14.10;3.40;;;;;;;22.25;36.95;101371.56;130002;1260;114689;-67
2023/05/27 06:54:48;;;;;;;9.20;3.50;;;;;;;22.51;36.76;101367.11;129978;1262;115595;-68
2023/05/27 06:57:50;;;;;;;11.40;3.60;;;;;;;22.81;36.10;101371.15;130002;1262;127719;-69
2023/05/27 07:00:52;;;;;;;7.40;3.00;;;;;;;22.87;36.20;101372.08;130174;1278;114745;-69
2023/05/27 07:03:54;;;;;;;9.40;3.20;;;;;;;23.17;35.33;101375.42;130172;1261;114751;-68
2023/05/27 07:06:56;;;;;;;9.10;2.90;;;;;;;23.23;35.13;101375.64;129950;1260;114728;-68
2023/05/27 07:09:58;;;;;;;8.50;3.40;;;;;;;23.37;34.56;101369.56;130116;1257;115209;-70
2023/05/27 07:13:00;;;;;;;9.50;4.10;;;;;;;23.36;34.67;101366.68;130169;1269;115369;-71
2023/05/27 07:16:02;;;;;;;7.00;3.40;;;;;;;23.54;34.97;101363.48;129844;1261;114912;-70
2023/05/27 07:19:05;;;;;;;7.40;3.20;;;;;;;23.88;34.50;101363.83;130166;1260;114723;-69
2023/05/27 07:22:07;;;;;;;5.30;2.80;;;;;;;24.06;33.60;101370.23;130164;1261;114798;-69
2023/05/27 07:25:09;;;;;;;10.30;3.30;;;;;;;24.18;33.83;101362.46;130012;1261;115375;-68
2023/05/27 07:28:11;;;;;;;5.40;3.00;;;;;;;24.27;32.37;101361.59;130271;1262;115101;-69
2023/05/27 07:31:13;;;;;;;4.90;2.80;;;;;;;24.26;32.45;101354.98;130265;1277;114728;-65
2023/05/27 07:34:15;;;;;;;5.00;2.10;;;;;;;24.05;31.74;101356.48;130250;1254;115313;-68
2023/05/27 07:37:17;;;;;;;6.70;2.20;;;;;;;23.86;31.64;101354.45;130221;1258;114851;-71
2023/05/27 07:40:19;;;;;;;11.30;2.80;;;;;;;23.68;30.20;101356.58;130179;1260;114828;-68
2023/05/27 07:43:21;;;;;;;9.90;3.00;;;;;;;23.51;31.20;101355.73;130208;1275;114679;-65
2023/05/27 07:46:24;;;;;;;6.20;2.60;;;;;;;23.68;31.98;101346.77;129875;1260;115379;-66
2023/05/27 07:49:26;;;;;;;6.50;2.40;;;;;;;24.02;32.07;101349.81;130155;1257;115127;-67
2023/05/27 07:52:28;;;;;;;5.90;2.80;;;;;;;24.34;31.75;101343.63;130189;1260;114705;-68
2023/05/27 07:55:30;;;;;;;4.60;2.20;;;;;;;24.48;30.49;101345.61;130183;1273;116453;-68
2023/05/27 07:58:32;;;;;;;6.70;2.10;;;;;;;24.38;30.21;101342.05;130274;1260;114630;-66
2023/05/27 08:01:35;;;;;;;7.10;2.00;;;;;;;24.48;30.49;101341.23;130240;1270;114739;-66
2023/05/27 08:04:37;;;;;;;5.40;2.80;;;;;;;24.60;30.06;101336.13;130227;1258;128880;-66
2023/05/27 08:07:39;;;;;;;7.90;3.00;;;;;;;24.54;30.17;101331.93;130127;1270;114812;-66
2023/05/27 08:10:41;;;;;;;7.50;2.40;;;;;;;24.33;29.97;101338.66;130197;1273;114768;-67
2023/05/27 08:13:43;;;;;;;7.60;2.30;;;;;;;24.33;30.38;101329.50;129980;1264;114811;-66
2023/05/27 08:16:45;;;;;;;7.50;3.20;;;;;;;24.53;30.65;101329.70;130210;1260;114732;-69
2023/05/27 08:19:47;;;;;;;11.30;3.10;;;;;;;24.63;30.17;101324.89;130171;1267;115162;-66
2023/05/27 08:22:49;;;;;;;7.40;2.70;;;;;;;24.56;29.67;101325.55;129884;1264;114773;-70
2023/05/27 08:25:51;;;;;;;7.10;2.50;;;;;;;24.51;30.14;101323.05;130211;1274;114726;-65
2023/05/27 08:28:53;;;;;;;10.20;2.90;;;;;;;24.75;30.54;101321.27;130205;1259;114789;-65
2023/05/27 08:31:55;;;;;;;5.30;2.70;;;;;;;24.89;29.47;101326.55;130302;1261;115260;-69
2023/05/27 08:34:58;;;;;;;10.50;3.20;;;;;;;24.52;28.62;101327.58;130326;1260;114743;-66
2023/05/27 08:38:00;;;;;;;6.60;2.60;;;;;;;24.00;29.32;101325.11;130222;1260;114780;-69
2023/05/27 08:41:02;;;;;;;9.00;2.30;;;;;;;23.84;29.59;101316.33;130275;1260;115310;-67
2023/05/27 08:44:05;;;;;;;8.40;2.90;;;;;;;23.88;30.28;101312.70;130354;1256;114784;-68
2023/05/27 08:47:07;;;;;;;9.60;2.70;;;;;;;23.89;29.46;101318.45;130258;1276;115163;-71
2023/05/27 08:50:11;;;;;;;7.00;2.90;;;;;;;23.88;30.41;101315.40;130253;1273;114810;-70
2023/05/27 08:53:13;;;;;;;7.60;2.80;;;;;;;23.95;29.76;101315.20;130449;1260;115179;-72
2023/05/27 08:56:24;;;;;;;9.00;2.70;;;;;;;23.70;30.05;101311.41;130238;1273;115120;-73
2023/05/27 08:59:26;;;;;;;6.20;2.70;;;;;;;23.40;29.98;101311.09;130237;1255;115146;-68
2023/05/27 09:02:28;;;;;;;7.70;2.70;;;;;;;23.06;30.40;101306.91;130245;1259;114907;-66
2023/05/27 09:05:30;;;;;;;13.90;3.30;;;;;;;22.81;30.48;101314.54;130214;1254;115706;-67
2023/05/27 09:08:34;;;;;;;12.10;3.60;;;;;;;22.72;31.04;101316.37;130080;1260;115241;-71
2023/05/27 09:11:39;;;;;;;7.70;2.80;;;;;;;22.58;31.27;101315.92;129945;1264;114818;-70
2023/05/27 09:14:43;;;;;;;9.70;2.90;;;;;;;22.52;31.26;101314.64;130013;1263;114894;-70
2023/05/27 09:17:47;;;;;;;9.60;3.00;;;;;;;22.38;31.13;101313.89;129967;1261;114864;-70
2023/05/27 09:20:55;;;;;;;10.30;3.40;;;;;;;22.16;31.55;101311.55;130040;1261;128833;-66
2023/05/27 09:23:58;;;;;;;12.30;3.30;;;;;;;22.16;32.10;101308.24;130077;1261;115216;-64
2023/05/27 09:27:02;;;;;;;8.60;2.70;;;;;;;22.16;32.19;101306.41;130047;1264;114899;-67
2023/05/27 09:30:09;;;;;;;8.70;3.30;;;;;;;21.95;31.68;101309.06;130038;1265;114991;-67
2023/05/27 09:33:24;;;;;;;9.30;3.60;;;;;;;21.61;32.11;101303.41;130147;1263;114876;-68
2023/05/27 09:36:27;;;;;;;5.00;2.50;;;;;;;21.54;32.18;101300.67;130023;1271;129106;-67
2023/05/27 09:39:30;;;;;;;6.90;2.80;;;;;;;21.25;32.12;101295.29;130220;1257;115344;-68
2023/05/27 09:42:44;;;;;;;10.40;2.90;;;;;;;21.08;32.71;101288.81;130173;1256;115614;-66
2023/05/27 09:45:46;;;;;;;7.30;2.40;;;;;;;20.97;32.61;101286.98;129710;1264;114697;-67
2023/05/27 09:48:48;;;;;;;8.60;3.40;;;;;;;20.75;32.54;101289.58;129971;1255;115159;-68
2023/05/27 09:51:51;;;;;;;7.40;3.10;;;;;;;20.64;32.67;101286.33;130275;1261;114769;-69
2023/05/27 09:54:53;;;;;;;6.90;2.90;;;;;;;20.55;32.46;101289.27;130140;1270;115339;-68
2023/05/27 09:57:55;;;;;;;7.10;3.00;;;;;;;20.27;31.72;101292.04;130190;1258;115221;-67
2023/05/27 10:00:59;;;;;;;8.90;3.30;;;;;;;20.04;31.73;101287.59;130143;1274;114728;-67
2023/05/27 10:04:03;;;;;;;7.60;3.00;;;;;;;19.98;31.99;101287.84;130137;1260;114717;-67
2023/05/27 10:07:06;;;;;;;5.70;2.70;;;;;;;19.91;32.09;101281.27;130093;1274;114842;-68
2023/05/27 10:10:14;;;;;;;6.50;2.60;;;;;;;19.78;32.30;101279.10;130370;1260;114710;-66
2023/05/27 10:13:19;;;;;;;3.60;2.30;;;;;;;19.74;32.30;101277.03;130309;1258;115200;-69
2023/05/27 10:16:23;;;;;;;4.40;2.10;;;;;;;19.72;31.64;101277.34;130301;1254;114697;-68
2023/05/27 10:19:25;;;;;;;7.70;3.60;;;;;;;19.71;32.02;101277.78;129996;1258;115387;-66
2023/05/27 10:22:27;;;;;;;7.60;2.20;;;;;;;19.66;31.84;101280.13;130091;1254;114847;-68
2023/05/27 10:25:38;;;;;;;7.40;3.40;;;;;;;19.61;31.50;101271.08;130399;1260;114710;-66
2023/05/27 10:28:40;;;;;;;4.70;2.50;;;;;;;19.44;31.65;101265.19;130420;1261;114629;-67
2023/05/27 10:31:51;;;;;;;7.10;3.50;;;;;;;19.46;31.92;101263.84;130396;1261;114732;-67
2023/05/27 10:34:55;;;;;;;9.00;2.50;;;;;;;19.50;31.53;101261.38;131774;1254;114721;-70
2023/05/27 10:37:58;;;;;;;5.50;3.10;;;;;;;19.48;31.55;101257.14;130184;1254;114871;-68
2023/05/27 10:41:01;;;;;;;3.80;2.30;;;;;;;19.44;31.12;101257.09;130369;1255;115431;-64
2023/05/27 10:44:03;;;;;;;6.40;2.50;;;;;;;19.43;31.65;101252.27;130210;1277;114658;-68
2023/05/27 10:47:10;;;;;;;6.80;2.90;;;;;;;19.40;30.57;101260.08;130152;1259;114796;-68
2023/05/27 10:50:13;;;;;;;5.00;2.40;;;;;;;19.26;30.79;101251.27;130380;1254;114774;-67
2023/05/27 10:53:18;;;;;;;4.70;2.60;;;;;;;19.30;31.31;101254.96;130103;1258;114696;-67
2023/05/27 10:56:21;;;;;;;5.80;2.40;;;;;;;19.33;31.01;101256.96;130195;1258;128952;-66
2023/05/27 10:59:23;;;;;;;4.60;2.30;;;;;;;19.32;30.77;101254.66;130115;1256;114794;-66
2023/05/27 11:02:31;;;;;;;2.60;1.80;;;;;;;19.33;30.79;101252.23;130083;1258;115307;-67
2023/05/27 11:05:33;;;;;;;5.10;2.20;;;;;;;19.36;31.03;101248.59;130157;1256;114736;-66
2023/05/27 11:08:37;;;;;;;4.30;2.10;;;;;;;19.34;30.89;101247.47;130124;1254;115331;-66
2023/05/27 11:11:39;;;;;;;7.90;2.50;;;;;;;19.28;30.44;101252.38;130090;1270;114775;-65
2023/05/27 11:14:51;;;;;;;7.00;2.60;;;;;;;19.22;30.63;101249.18;130100;1277;114698;-66
2023/05/27 11:17:53;;;;;;;4.70;2.60;;;;;;;19.15;30.07;101246.09;130151;1260;114721;-65
2023/05/27 11:20:57;;;;;;;7.90;2.00;;;;;;;19.08;30.39;101246.77;130179;1260;114696;-66
2023/05/27 11:24:00;;;;;;;5.00;2.60;;;;;;;19.07;30.96;101247.91;130083;1255;114722;-66
2023/05/27 11:27:15;;;;;;;6.00;2.40;;;;;;;19.11;31.06;101245.63;130044;1260;114818;-65
2023/05/27 11:30:24;;;;;;;6.80;2.30;;;;;;;19.16;31.28;101239.16;129874;1263;115251;-67
2023/05/27 11:33:35;;;;;;;9.80;2.90;;;;;;;19.14;31.07;101235.84;130008;1263;115360;-66
2023/05/27 11:36:38;;;;;;;5.20;3.00;;;;;;;19.14;31.11;101237.30;129806;1275;115114;-67
2023/05/27 11:39:53;;;;;;;5.90;2.50;;;;;;;19.12;31.38;101232.16;130010;1258;114831;-66
2023/05/27 11:43:01;;;;;;;6.20;2.60;;;;;;;19.13;30.88;101223.56;129795;1278;127568;-67
2023/05/27 11:46:03;;;;;;;6.80;3.00;;;;;;;19.17;31.24;101218.27;129899;1263;115223;-67
2023/05/27 11:49:07;;;;;;;4.70;2.00;;;;;;;19.25;31.74;101219.13;130085;1261;114781;-66
2023/05/27 11:52:11;;;;;;;5.20;2.20;;;;;;;19.22;30.96;101229.32;129919;1261;114713;-67
2023/05/27 11:55:16;;;;;;;6.00;2.80;;;;;;;19.17;30.79;101224.23;129939;1258;114802;-66
2023/05/27 11:58:18;;;;;;;5.10;2.50;;;;;;;19.14;31.07;101217.00;130073;1260;128992;-66
2023/05/27 12:01:20;;;;;;;6.30;2.40;;;;;;;19.18;31.49;101210.91;130091;1261;114802;-68
2023/05/27 12:04:22;;;;;;;8.20;2.90;;;;;;;19.18;31.34;101210.40;130151;1260;115243;-65
2023/05/27 12:07:24;;;;;;;5.90;2.80;;;;;;;19.13;31.26;101208.20;129854;1261;114773;-65
2023/05/27 12:10:28;;;;;;;5.20;2.10;;;;;;;19.07;31.50;101204.10;130158;1258;114719;-65
2023/05/27 12:13:31;;;;;;;4.30;2.20;;;;;;;19.09;31.96;101203.39;130116;1277;114745;-65
2023/05/27 12:16:33;;;;;;;6.50;2.00;;;;;;;19.11;31.65;101194.95;130182;1258;114786;-66
2023/05/27 12:19:35;;;;;;;4.20;2.10;;;;;;;19.16;32.03;101194.41;129931;1270;114734;-66
2023/05/27 12:22:38;;;;;;;5.30;2.20;;;;;;;19.21;31.73;101195.30;130279;1277;114747;-66
2023/05/27 12:25:40;;;;;;;10.20;2.90;;;;;;;19.18;31.48;101199.71;130110;1259;114735;-66
2023/05/27 12:28:43;;;;;;;7.50;2.60;;;;;;;19.18;31.58;101199.36;130373;1277;114716;-64
2023/05/27 12:31:45;;;;;;;7.10;3.30;;;;;;;19.16;31.63;101191.54;130304;1277;115078;-65
2023/05/27 12:34:47;;;;;;;4.80;2.40;;;;;;;19.18;32.00;101188.99;130180;1265;114747;-66
2023/05/27 12:37:49;;;;;;;5.60;2.50;;;;;;;19.20;32.20;101186.16;130090;1259;128464;-65
2023/05/27 12:40:52;;;;;;;6.60;2.50;;;;;;;19.23;32.34;101186.48;130046;1260;114723;-66
2023/05/27 12:43:54;;;;;;;4.40;2.50;;;;;;;19.25;32.65;101181.08;130187;1255;114737;-66
2023/05/27 12:46:56;;;;;;;7.20;3.50;;;;;;;19.27;32.54;101184.36;130144;1278;114798;-65
2023/05/27 12:49:59;;;;;;;6.10;2.20;;;;;;;19.21;32.39;101178.61;129797;1256;114907;-65
2023/05/27 12:53:02;;;;;;;6.10;2.20;;;;;;;19.22;32.86;101179.27;130074;1278;114717;-65
2023/05/27 12:56:04;;;;;;;6.30;2.50;;;;;;;19.21;32.52;101174.43;130079;1261;115169;-66
2023/05/27 12:59:06;;;;;;;3.90;2.30;;;;;;;19.22;32.55;101169.19;130284;1255;115394;-65
2023/05/27 13:02:08;;;;;;;3.40;2.10;;;;;;;19.18;32.24;101167.81;130072;1259;114766;-65
2023/05/27 13:05:11;;;;;;;5.20;2.20;;;;;;;19.17;32.61;101167.73;130035;1260;114868;-66
2023/05/27 13:08:13;;;;;;;5.30;1.80;;;;;;;19.15;32.61;101172.20;130025;1258;114825;-63
2023/05/27 13:11:15;;;;;;;9.10;2.10;;;;;;;19.16;32.71;101169.98;129878;1259;114726;-67
2023/05/27 13:14:17;;;;;;;4.50;2.00;;;;;;;19.16;32.30;101167.25;130018;1271;116400;-64
2023/05/27 13:17:19;;;;;;;4.90;2.40;;;;;;;19.15;32.32;101162.96;130175;1275;114679;-65
2023/05/27 13:20:23;;;;;;;5.90;2.20;;;;;;;19.14;32.02;101151.83;130234;1259;114765;-66
2023/05/27 13:23:28;;;;;;;6.30;3.20;;;;;;;19.14;32.24;101155.61;130096;1258;114744;-64
2023/05/27 13:26:32;;;;;;;3.10;2.00;;;;;;;19.14;32.21;101148.92;130140;1258;114700;-64
2023/05/27 13:29:35;;;;;;;3.10;2.20;;;;;;;19.16;32.35;101143.71;129690;1273;114680;-65
2023/05/27 13:32:38;;;;;;;4.10;2.10;;;;;;;19.14;32.05;101139.64;130140;1270;114736;-63
2023/05/27 13:35:41;;;;;;;3.40;2.00;;;;;;;19.11;31.99;101137.18;130204;1270;114729;-64
2023/05/27 13:38:43;;;;;;;3.80;1.90;;;;;;;19.10;32.15;101131.45;130169;1277;114722;-64
2023/05/27 13:41:45;;;;;;;4.30;2.30;;;;;;;19.12;32.26;101124.27;130116;1277;114714;-70
2023/05/27 13:44:47;;;;;;;3.80;1.80;;;;;;;19.16;32.46;101127.77;129762;1274;115102;-63
2023/05/27 13:47:50;;;;;;;3.10;1.60;;;;;;;19.17;32.23;101122.63;129757;1258;114709;-63